Time;durP1;ratioP1;P1;durP2;ratioP2;P2;SDS_P1;SDS_P2;PMS_P1;PMS_P2;Temp;Humidity;BMP_temperature;BMP_pressure;BME280_temperature;BME280_humidity;BME280_pressure;Samples;Min_cycle;Max_cycle;Signal;HPM_P1;HPM_P2
2022/05/27 00:01:28;;;;;;;3.30;3.00;;;;;10.80;96832.00;;;;8412544;28;20735;-76
2022/05/27 00:05:32;;;;;;;4.50;3.10;;;;;10.90;96829.00;;;;8417679;28;20258;-76
2022/05/27 00:09:36;;;;;;;2.83;2.63;;;;;10.90;96829.00;;;;8417488;28;20767;-77
2022/05/27 00:13:40;;;;;;;5.63;2.90;;;;;11.00;96825.00;;;;8417821;28;20237;-77
2022/05/27 00:17:43;;;;;;;6.43;2.90;;;;;11.00;96823.00;;;;8417361;28;20239;-78
2022/05/27 00:21:47;;;;;;;5.28;2.97;;;;;11.00;96811.00;;;;8416399;28;20314;-77
2022/05/27 00:25:51;;;;;;;4.87;3.10;;;;;11.00;96815.00;;;;8420565;28;20322;-78
2022/05/27 00:29:54;;;;;;;3.83;3.10;;;;;11.10;96813.00;;;;8418505;28;20233;-78
2022/05/27 00:34:09;;;;;;;5.33;3.20;;;;;11.10;96809.00;;;;8413939;28;20224;-78
2022/05/27 00:38:13;;;;;;;6.40;3.17;;;;;11.10;96805.00;;;;8361025;28;20229;-78
2022/05/27 00:42:18;;;;;;;3.33;3.03;;;;;11.10;96801.00;;;;8375616;28;20228;-80
2022/05/27 00:46:24;;;;;;;3.97;3.27;;;;;11.10;96801.00;;;;8385064;28;20726;-79
2022/05/27 00:50:31;;;;;;;3.25;2.97;;;;;11.20;96797.00;;;;8418040;28;20604;-76
2022/05/27 00:54:35;;;;;;;4.30;3.10;;;;;11.20;96790.00;;;;8415775;28;20234;-75
2022/05/27 00:58:44;;;;;;;4.20;3.37;;;;;11.20;96791.00;;;;8420061;28;20231;-79
2022/05/27 01:02:48;;;;;;;3.23;2.90;;;;;11.20;96791.00;;;;8416680;28;20231;-74
2022/05/27 01:06:51;;;;;;;4.13;3.03;;;;;11.20;96785.00;;;;8416581;28;20658;-73
2022/05/27 01:11:09;;;;;;;3.33;3.03;;;;;11.20;96774.00;;;;8414809;28;20335;-78
2022/05/27 01:15:26;;;;;;;4.73;3.00;;;;;11.20;96774.00;;;;8383750;28;20243;-74
2022/05/27 01:24:20;;;;;;;3.53;3.10;;;;;11.10;96773.00;;;;8413957;28;20334;-73
2022/05/27 01:28:39;;;;;;;3.20;2.67;;;;;11.10;96775.00;;;;8418621;28;20319;-76
2022/05/27 01:32:49;;;;;;;5.25;3.25;;;;;11.00;96760.00;;;;8408166;28;20332;-75
2022/05/27 01:37:02;;;;;;;3.92;3.45;;;;;10.90;96762.00;;;;8413249;28;20313;-76
2022/05/27 01:41:13;;;;;;;7.15;3.15;;;;;10.80;96754.00;;;;8418475;28;20237;-76
2022/05/27 01:45:20;;;;;;;6.25;3.17;;;;;10.70;96758.00;;;;8408399;28;20254;-75
2022/05/27 01:49:34;;;;;;;7.70;3.20;;;;;10.60;96755.00;;;;8413359;28;20320;-76
2022/05/27 01:53:44;;;;;;;8.53;3.30;;;;;10.60;96750.00;;;;8413373;28;20224;-76
2022/05/27 01:57:51;;;;;;;8.77;3.90;;;;;10.60;96743.00;;;;8414114;28;20309;-73
2022/05/27 02:02:01;;;;;;;4.67;3.23;;;;;10.50;96741.00;;;;8415486;28;20298;-75
2022/05/27 02:06:09;;;;;;;6.07;3.77;;;;;10.40;96746.00;;;;8398910;28;20793;-77
2022/05/27 02:10:18;;;;;;;7.17;3.30;;;;;10.40;96743.00;;;;8406462;28;20235;-74
2022/05/27 02:14:28;;;;;;;5.33;3.53;;;;;10.30;96731.00;;;;8415044;28;20263;-75
2022/05/27 02:18:37;;;;;;;4.77;3.43;;;;;10.30;96723.00;;;;8412491;28;20591;-75
2022/05/27 02:22:47;;;;;;;5.40;3.33;;;;;10.20;96722.00;;;;8405959;28;20299;-76
2022/05/27 02:26:55;;;;;;;3.93;3.57;;;;;10.20;96724.00;;;;8383629;28;20295;-76
2022/05/27 02:31:01;;;;;;;11.80;5.50;;;;;10.20;96716.00;;;;8358449;28;20265;-76
2022/05/27 02:35:09;;;;;;;4.20;3.33;;;;;10.20;96725.00;;;;8379583;28;20258;-76
2022/05/27 02:39:14;;;;;;;6.10;3.90;;;;;10.10;96716.00;;;;8368109;28;20260;-77
2022/05/27 02:43:28;;;;;;;9.57;3.40;;;;;10.10;96721.00;;;;8379132;28;20223;-76
2022/05/27 02:47:39;;;;;;;6.00;3.70;;;;;10.10;96712.00;;;;8412324;28;20230;-75
2022/05/27 02:51:51;;;;;;;6.37;3.50;;;;;10.10;96718.00;;;;8412994;28;20231;-76
2022/05/27 02:56:06;;;;;;;7.10;3.90;;;;;10.10;96719.00;;;;8414974;28;20540;-75
2022/05/27 03:00:11;;;;;;;4.80;3.73;;;;;10.10;96722.00;;;;8414451;28;20676;-76
2022/05/27 03:04:15;;;;;;;7.47;3.90;;;;;10.20;96714.00;;;;8416710;22;20342;-73
2022/05/27 03:08:24;;;;;;;8.00;4.27;;;;;10.30;96714.00;;;;8405614;28;20242;-75
2022/05/27 03:12:40;;;;;;;5.07;3.63;;;;;10.40;96710.00;;;;8412557;28;20310;-75
2022/05/27 03:16:54;;;;;;;4.63;3.80;;;;;10.50;96711.00;;;;8416290;28;20685;-74
2022/05/27 03:21:08;;;;;;;5.00;3.50;;;;;10.40;96707.00;;;;8407662;28;20258;-75
2022/05/27 03:25:20;;;;;;;5.60;3.80;;;;;10.40;96713.00;;;;8397181;28;20303;-74
2022/05/27 03:29:34;;;;;;;6.73;3.43;;;;;10.40;96704.00;;;;8421440;28;20762;-77
2022/05/27 03:33:47;;;;;;;9.93;3.77;;;;;10.50;96701.00;;;;8378322;28;20716;-74
2022/05/27 03:37:56;;;;;;;3.57;3.27;;;;;10.50;96706.00;;;;8416888;28;20252;-74
2022/05/27 03:42:04;;;;;;;11.93;3.50;;;;;10.50;96706.00;;;;8387329;28;20246;-76
2022/05/27 03:46:09;;;;;;;5.00;3.40;;;;;10.50;96702.00;;;;8378569;28;20230;-75
2022/05/27 03:50:16;;;;;;;4.53;3.40;;;;;10.60;96705.00;;;;8364304;28;20290;-79
2022/05/27 03:54:20;;;;;;;6.83;3.40;;;;;10.70;96702.00;;;;8379589;28;20351;-80
2022/05/27 03:58:24;;;;;;;8.93;3.70;;;;;10.80;96701.00;;;;8381211;28;20323;-76
2022/05/27 04:02:28;;;;;;;9.27;3.60;;;;;11.10;96693.00;;;;8369997;28;20651;-76
2022/05/27 04:06:32;;;;;;;9.53;3.57;;;;;11.50;96695.00;;;;8403954;28;20285;-74
2022/05/27 04:10:35;;;;;;;5.82;3.38;;;;;11.80;96710.00;;;;8408716;28;20228;-77
2022/05/27 04:14:38;;;;;;;4.90;3.13;;;;;12.20;96707.00;;;;8380707;28;20235;-77
2022/05/27 04:18:43;;;;;;;7.15;3.05;;;;;12.50;96712.00;;;;8379943;28;20239;-78
2022/05/27 04:22:46;;;;;;;5.88;3.28;;;;;13.00;96713.00;;;;8397700;28;20228;-74
2022/05/27 04:26:50;;;;;;;5.53;3.28;;;;;13.40;96710.00;;;;8399243;28;20309;-79
2022/05/27 04:30:53;;;;;;;3.75;3.10;;;;;13.80;96707.00;;;;8408103;28;20237;-74
2022/05/27 04:34:57;;;;;;;7.38;2.90;;;;;14.20;96718.00;;;;8397213;28;20255;-76
2022/05/27 04:39:02;;;;;;;4.70;2.92;;;;;14.40;96719.00;;;;8399170;28;20282;-73
2022/05/27 04:43:06;;;;;;;3.03;2.70;;;;;14.80;96714.00;;;;8408206;28;20231;-72
2022/05/27 04:47:11;;;;;;;5.25;2.65;;;;;15.10;96701.00;;;;8444333;28;20224;-75
2022/05/27 04:51:21;;;;;;;4.68;2.42;;;;;15.50;96701.00;;;;8447181;27;20279;-74
2022/05/27 04:55:24;;;;;;;4.13;2.63;;;;;15.80;96713.00;;;;8443840;27;20226;-78
2022/05/27 04:59:28;;;;;;;3.58;2.65;;;;;16.20;96703.00;;;;8445728;27;20228;-75
2022/05/27 05:03:31;;;;;;;3.28;2.50;;;;;16.50;96706.00;;;;8445216;27;20242;-76
2022/05/27 05:07:36;;;;;;;3.58;2.35;;;;;16.90;96701.00;;;;8446293;28;20301;-71
2022/05/27 05:11:40;;;;;;;3.40;2.13;;;;;17.00;96696.00;;;;8442209;28;20265;-75
2022/05/27 05:15:44;;;;;;;3.53;2.20;;;;;17.30;96702.00;;;;8441598;28;20647;-77
2022/05/27 05:19:47;;;;;;;4.30;2.63;;;;;17.50;96701.00;;;;8437600;28;20310;-72
2022/05/27 05:23:52;;;;;;;2.10;1.95;;;;;17.80;96701.00;;;;8426526;28;20246;-72
2022/05/27 05:27:56;;;;;;;2.30;2.10;;;;;17.90;96703.00;;;;8448070;28;20313;-76
2022/05/27 05:31:59;;;;;;;4.13;2.40;;;;;18.00;96706.00;;;;8446493;28;20268;-71
2022/05/27 05:36:02;;;;;;;3.03;2.10;;;;;17.90;96698.00;;;;8446257;28;20221;-73
2022/05/27 05:40:10;;;;;;;4.40;2.38;;;;;17.80;96702.00;;;;8450235;28;20227;-76
2022/05/27 05:44:13;;;;;;;5.45;2.30;;;;;17.80;96708.00;;;;8443933;28;20226;-75
2022/05/27 05:48:17;;;;;;;3.00;2.35;;;;;17.90;96711.00;;;;8440309;28;20239;-73
2022/05/27 05:52:20;;;;;;;3.22;2.40;;;;;18.00;96711.00;;;;8444733;27;20586;-76
2022/05/27 05:56:25;;;;;;;3.25;2.10;;;;;18.20;96710.00;;;;8447552;27;20297;-73
2022/05/27 06:00:28;;;;;;;2.70;2.25;;;;;18.40;96716.00;;;;8448055;28;20707;-75
2022/05/27 06:04:32;;;;;;;3.53;2.30;;;;;18.80;96712.00;;;;8445945;28;20964;-75
2022/05/27 06:08:36;;;;;;;3.72;2.00;;;;;19.30;96709.00;;;;8441969;28;20687;-72
2022/05/27 06:12:40;;;;;;;2.38;1.95;;;;;20.10;96709.00;;;;8439496;28;20276;-74
2022/05/27 06:16:57;;;;;;;5.35;2.22;;;;;20.20;96707.00;;;;8438908;28;20676;-72
2022/05/27 06:21:01;;;;;;;4.43;2.33;;;;;19.90;96699.00;;;;8446891;27;20560;-80
2022/05/27 06:25:06;;;;;;;4.07;2.22;;;;;20.00;96704.00;;;;8435203;28;20321;-73
2022/05/27 06:37:52;;;;;;;3.20;2.20;;;;;19.70;96710.00;;;;8436429;27;20218;-81
2022/05/27 06:41:55;;;;;;;3.70;2.50;;;;;19.50;96713.00;;;;8444310;28;20253;-76
2022/05/27 06:46:03;;;;;;;3.08;2.75;;;;;19.40;96719.00;;;;8443685;28;20242;-74
2022/05/27 06:50:09;;;;;;;3.30;2.78;;;;;19.40;96720.00;;;;8436943;27;20570;-74
2022/05/27 06:54:13;;;;;;;6.13;2.50;;;;;19.30;96718.00;;;;8442661;27;20678;-75
2022/05/27 06:58:17;;;;;;;3.70;2.67;;;;;19.20;96727.00;;;;8445673;28;20413;-75
2022/05/27 07:02:22;;;;;;;2.85;2.58;;;;;19.10;96722.00;;;;8440173;28;20243;-77
2022/05/27 07:06:29;;;;;;;3.47;2.55;;;;;18.90;96716.00;;;;8435286;28;21879;-70
2022/05/27 07:10:33;;;;;;;2.92;2.47;;;;;18.90;96719.00;;;;8437535;28;20234;-71
2022/05/27 07:14:43;;;;;;;4.07;2.60;;;;;18.70;96726.00;;;;8443334;28;20244;-71
2022/05/27 07:18:48;;;;;;;2.72;2.53;;;;;18.60;96727.00;;;;8443695;28;20313;-72
2022/05/27 07:22:51;;;;;;;4.53;2.95;;;;;18.50;96720.00;;;;8438397;28;20223;-73
2022/05/27 07:26:55;;;;;;;4.57;2.88;;;;;18.50;96714.00;;;;8442098;28;20313;-72
2022/05/27 07:31:01;;;;;;;4.20;2.80;;;;;18.60;96706.00;;;;8439548;28;21901;-72
2022/05/27 07:35:13;;;;;;;6.45;2.85;;;;;18.60;96721.00;;;;8438357;28;20298;-75
2022/05/27 07:39:16;;;;;;;5.28;3.10;;;;;18.50;96731.00;;;;8438752;28;20325;-72
2022/05/27 07:43:20;;;;;;;4.05;3.08;;;;;18.60;96716.00;;;;8430226;28;20687;-72
2022/05/27 07:47:24;;;;;;;4.90;3.03;;;;;18.70;96715.00;;;;8440924;28;20671;-73
2022/05/27 07:51:29;;;;;;;4.13;3.03;;;;;19.00;96711.00;;;;8437139;28;20671;-72
2022/05/27 07:55:32;;;;;;;4.15;2.92;;;;;19.40;96700.00;;;;8435917;28;20316;-74
2022/05/27 07:59:36;;;;;;;4.82;3.25;;;;;19.80;96701.00;;;;8433703;28;20678;-73
2022/05/27 08:03:40;;;;;;;5.43;3.17;;;;;20.10;96703.00;;;;8435986;28;20222;-73
2022/05/27 08:07:46;;;;;;;3.65;2.75;;;;;20.60;96709.00;;;;8446231;28;20234;-76
2022/05/27 08:11:50;;;;;;;3.95;2.80;;;;;20.40;96712.00;;;;8445532;28;20244;-75
2022/05/27 08:15:53;;;;;;;6.28;3.47;;;;;20.40;96713.00;;;;8446706;28;20253;-72
2022/05/27 08:19:57;;;;;;;4.10;2.70;;;;;20.50;96704.00;;;;8446413;28;20218;-72
2022/05/27 08:24:02;;;;;;;4.40;3.20;;;;;20.50;96708.00;;;;8452483;28;20309;-72
2022/05/27 08:28:06;;;;;;;7.85;3.22;;;;;20.50;96709.00;;;;8452787;28;20705;-71
2022/05/27 08:32:09;;;;;;;3.83;3.20;;;;;20.50;96700.00;;;;8433698;28;20314;-72
2022/05/27 08:41:06;;;;;;;3.63;3.08;;;;;20.50;96712.00;;;;8448120;28;20258;-73
2022/05/27 08:45:14;;;;;;;9.88;3.13;;;;;20.20;96717.00;;;;8453189;27;20241;-73
2022/05/27 08:49:22;;;;;;;10.25;3.00;;;;;20.40;96709.00;;;;8443928;27;20321;-72
2022/05/27 08:53:33;;;;;;;4.97;3.20;;;;;21.00;96702.00;;;;8446920;28;20707;-71
2022/05/27 09:02:03;;;;;;;3.53;2.78;;;;;22.20;96689.00;;;;8441530;28;20314;-71
2022/05/27 09:06:06;;;;;;;5.63;3.30;;;;;22.10;96703.00;;;;8442904;28;20234;-71
2022/05/27 09:10:15;;;;;;;3.03;2.80;;;;;21.90;96692.00;;;;8449871;28;20306;-72
2022/05/27 09:14:22;;;;;;;3.72;2.83;;;;;21.60;96702.00;;;;8437682;28;20227;-70
2022/05/27 09:18:36;;;;;;;4.28;2.90;;;;;21.40;96703.00;;;;8442104;27;20260;-73
2022/05/27 09:22:56;;;;;;;6.57;2.85;;;;;21.20;96706.00;;;;8434323;28;20222;-72
2022/05/27 09:27:07;;;;;;;3.40;2.80;;;;;21.40;96695.00;;;;8447472;28;20222;-71
2022/05/27 09:31:15;;;;;;;5.20;2.40;;;;;22.40;96687.00;;;;8442691;28;20222;-70
2022/05/27 09:35:22;;;;;;;3.50;2.60;;;;;23.60;96702.00;;;;8444308;28;20613;-72
2022/05/27 09:39:45;;;;;;;3.88;2.53;;;;;23.20;96704.00;;;;8447963;28;20293;-71
2022/05/27 09:43:53;;;;;;;2.55;2.20;;;;;22.60;96689.00;;;;8446616;28;20237;-72
2022/05/27 09:48:01;;;;;;;3.33;2.72;;;;;21.90;96691.00;;;;8436626;28;20227;-73
2022/05/27 09:52:05;;;;;;;2.65;2.50;;;;;22.80;96679.00;;;;8441807;27;20318;-73
2022/05/27 09:56:11;;;;;;;3.63;2.65;;;;;23.60;96672.00;;;;8445482;27;20325;-73
2022/05/27 10:00:15;;;;;;;10.00;2.97;;;;;23.70;96686.00;;;;8429810;28;20284;-75
2022/05/27 10:04:21;;;;;;;4.03;2.85;;;;;24.40;96661.00;;;;8437199;28;20635;-71
2022/05/27 10:08:37;;;;;;;2.85;2.65;;;;;24.80;96665.00;;;;8440496;28;20385;-69
2022/05/27 10:12:41;;;;;;;5.70;2.70;;;;;25.30;96671.00;;;;8442820;28;20236;-70
2022/05/27 10:17:01;;;;;;;2.95;2.50;;;;;25.60;96653.00;;;;8437986;27;20221;-70
2022/05/27 10:21:11;;;;;;;2.45;2.25;;;;;25.90;96673.00;;;;8442824;27;20218;-71
2022/05/27 10:25:16;;;;;;;2.70;2.50;;;;;26.10;96682.00;;;;8437783;28;20221;-72
2022/05/27 10:29:19;;;;;;;2.10;2.00;;;;;25.90;96675.00;;;;8440578;28;20317;-72
2022/05/27 10:33:25;;;;;;;5.40;2.42;;;;;24.80;96674.00;;;;8442015;27;20254;-72
2022/05/27 10:37:45;;;;;;;5.13;2.60;;;;;24.00;96684.00;;;;8449206;27;20309;-74
2022/05/27 10:42:17;;;;;;;3.45;2.63;;;;;23.50;96671.00;;;;8441049;28;20337;-73
2022/05/27 10:46:23;;;;;;;4.72;2.40;;;;;23.50;96671.00;;;;8425867;28;20218;-74
2022/05/27 10:50:33;;;;;;;2.72;2.53;;;;;23.40;96671.00;;;;8444080;27;20808;-74
2022/05/27 10:54:47;;;;;;;4.43;2.15;;;;;22.90;96685.00;;;;8430888;27;20313;-71
2022/05/27 11:04:07;;;;;;;6.28;2.60;;;;;22.30;96672.00;;;;8448721;27;20272;-71
2022/05/27 11:08:24;;;;;;;3.20;2.45;;;;;22.20;96676.00;;;;8439840;28;20812;-71
2022/05/27 11:17:22;;;;;;;2.03;1.92;;;;;22.10;96667.00;;;;8445904;28;20257;-71
2022/05/27 11:21:39;;;;;;;2.90;2.10;;;;;21.80;96668.00;;;;8437953;28;20229;-71
2022/05/27 11:25:59;;;;;;;4.15;2.33;;;;;21.60;96667.00;;;;8443534;28;20234;-71
2022/05/27 11:30:11;;;;;;;2.80;1.90;;;;;21.90;96653.00;;;;8446856;28;20237;-70
2022/05/27 11:34:23;;;;;;;2.25;2.05;;;;;21.80;96655.00;;;;8438121;28;20309;-72
2022/05/27 11:38:44;;;;;;;2.58;2.00;;;;;21.70;96643.00;;;;8441204;28;20234;-72
2022/05/27 11:43:17;;;;;;;2.70;1.90;;;;;21.60;96634.00;;;;8442210;28;20230;-72
2022/05/27 11:47:45;;;;;;;2.67;2.20;;;;;21.60;96643.00;;;;8421083;28;20296;-71
2022/05/27 11:52:02;;;;;;;2.65;2.03;;;;;21.70;96645.00;;;;8436142;28;20238;-71
2022/05/27 11:56:13;;;;;;;3.42;2.30;;;;;21.80;96643.00;;;;8451559;27;20238;-70
2022/05/27 12:00:19;;;;;;;4.00;2.10;;;;;21.80;96641.00;;;;8436585;28;20231;-70
2022/05/27 12:04:31;;;;;;;2.30;2.10;;;;;21.70;96644.00;;;;8442477;28;20306;-71
2022/05/27 12:08:40;;;;;;;4.22;2.25;;;;;22.10;96634.00;;;;8442358;28;20262;-71
2022/05/27 12:12:49;;;;;;;2.53;2.33;;;;;22.30;96631.00;;;;8438471;28;20740;-71
2022/05/27 12:16:54;;;;;;;2.38;1.88;;;;;22.30;96631.00;;;;8447275;28;20234;-70
2022/05/27 12:21:05;;;;;;;4.93;2.30;;;;;22.10;96624.00;;;;8445745;27;20769;-69
2022/05/27 12:25:12;;;;;;;3.13;1.80;;;;;22.20;96619.00;;;;8440345;28;20275;-69
2022/05/27 12:29:16;;;;;;;3.85;1.90;;;;;22.30;96604.00;;;;8443216;28;20698;-69
2022/05/27 12:33:28;;;;;;;2.03;1.92;;;;;22.80;96606.00;;;;8443402;28;20337;-70
2022/05/27 12:37:47;;;;;;;2.40;1.80;;;;;23.20;96604.00;;;;8451617;28;20253;-69
2022/05/27 12:42:07;;;;;;;3.65;2.10;;;;;23.10;96599.00;;;;8451084;27;20239;-70
2022/05/27 12:46:33;;;;;;;5.20;2.25;;;;;22.60;96609.00;;;;8436364;28;20222;-71
2022/05/27 12:50:39;;;;;;;6.22;2.33;;;;;22.30;96591.00;;;;8445655;27;20301;-73
2022/05/27 12:55:04;;;;;;;2.08;1.90;;;;;22.30;96597.00;;;;8459983;27;20228;-72
2022/05/27 13:04:06;;;;;;;2.28;2.00;;;;;22.60;96588.00;;;;8436664;27;20228;-72
2022/05/27 13:08:18;;;;;;;4.47;1.98;;;;;22.50;96580.00;;;;8444913;27;20219;-72
2022/05/27 13:12:54;;;;;;;5.20;2.35;;;;;22.10;96584.00;;;;8447784;27;20618;-73
2022/05/27 13:17:06;;;;;;;2.15;1.95;;;;;21.70;96583.00;;;;8420803;28;20223;-73
2022/05/27 13:21:13;;;;;;;2.35;2.00;;;;;21.40;96586.00;;;;8447852;28;20226;-72
2022/05/27 13:25:24;;;;;;;2.22;2.00;;;;;21.20;96574.00;;;;8445207;28;20272;-73
2022/05/27 13:29:39;;;;;;;2.88;2.08;;;;;20.90;96579.00;;;;8442548;28;20758;-72
2022/05/27 13:33:48;;;;;;;2.10;2.00;;;;;20.70;96580.00;;;;8438424;28;20241;-73
2022/05/27 13:37:54;;;;;;;2.53;2.33;;;;;20.50;96582.00;;;;8443316;27;21986;-71
2022/05/27 13:41:57;;;;;;;4.25;2.00;;;;;20.40;96574.00;;;;8443117;28;20681;-73
2022/05/27 13:46:17;;;;;;;3.15;2.10;;;;;20.50;96570.00;;;;8440728;28;21028;-73
2022/05/27 13:50:26;;;;;;;3.28;1.90;;;;;21.10;96568.00;;;;8439333;27;20223;-72
2022/05/27 13:54:34;;;;;;;4.68;2.17;;;;;21.50;96568.00;;;;8438432;28;20229;-73
2022/05/27 13:58:45;;;;;;;1.98;1.88;;;;;22.30;96566.00;;;;8434676;27;20215;-70
2022/05/27 14:02:51;;;;;;;3.53;2.00;;;;;23.20;96560.00;;;;8439541;28;20260;-71
2022/05/27 14:06:56;;;;;;;3.25;1.95;;;;;23.90;96548.00;;;;8443932;28;20249;-73
2022/05/27 14:10:59;;;;;;;2.15;1.95;;;;;24.00;96560.00;;;;8444113;28;20230;-73
2022/05/27 14:15:07;;;;;;;3.13;1.50;;;;;23.90;96544.00;;;;8446628;28;20316;-73
2022/05/27 14:19:18;;;;;;;1.90;1.80;;;;;23.50;96542.00;;;;8445290;27;20816;-72
2022/05/27 14:23:24;;;;;;;3.95;2.10;;;;;23.00;96541.00;;;;8441872;28;20237;-72
2022/05/27 14:27:29;;;;;;;2.25;2.08;;;;;22.70;96541.00;;;;8439752;28;20333;-72
2022/05/27 14:31:39;;;;;;;2.03;1.83;;;;;22.40;96546.00;;;;8437852;28;20241;-74
2022/05/27 14:35:43;;;;;;;2.65;2.00;;;;;22.00;96551.00;;;;8437535;27;20324;-74
2022/05/27 14:39:49;;;;;;;3.08;1.83;;;;;21.70;96547.00;;;;8442650;27;20931;-74
2022/05/27 14:43:54;;;;;;;2.08;1.98;;;;;21.70;96547.00;;;;8445791;28;20690;-73
2022/05/27 14:47:58;;;;;;;2.15;1.80;;;;;21.70;96544.00;;;;8441031;28;20226;-73
2022/05/27 14:52:14;;;;;;;2.00;1.90;;;;;21.70;96541.00;;;;8444265;28;20698;-74
2022/05/27 14:56:23;;;;;;;2.15;1.90;;;;;21.60;96547.00;;;;8434644;27;20226;-74
2022/05/27 15:00:30;;;;;;;3.53;1.80;;;;;21.60;96548.00;;;;8434532;28;20934;-71
2022/05/27 15:04:34;;;;;;;1.65;1.55;;;;;21.70;96555.00;;;;8440212;28;20225;-73
2022/05/27 15:08:38;;;;;;;1.90;1.80;;;;;21.40;96544.00;;;;8441197;28;20407;-71
2022/05/27 15:12:42;;;;;;;2.28;2.17;;;;;21.30;96550.00;;;;8440673;28;20703;-71
2022/05/27 15:16:54;;;;;;;2.47;2.28;;;;;21.10;96547.00;;;;8434891;28;20308;-73
2022/05/27 15:21:03;;;;;;;1.85;1.75;;;;;21.20;96537.00;;;;8439641;28;20225;-73
2022/05/27 15:25:10;;;;;;;2.00;1.90;;;;;22.00;96542.00;;;;8441751;28;20687;-72
2022/05/27 15:33:58;;;;;;;2.17;2.05;;;;;21.80;96528.00;;;;8446058;28;20637;-73
2022/05/27 15:38:02;;;;;;;2.85;2.10;;;;;21.50;96532.00;;;;8450461;28;20243;-71
2022/05/27 15:42:08;;;;;;;4.93;2.15;;;;;21.80;96535.00;;;;8446834;28;20235;-72
2022/05/27 15:46:14;;;;;;;1.90;1.80;;;;;21.80;96522.00;;;;8448161;28;20226;-72
2022/05/27 15:50:19;;;;;;;1.42;1.42;;;;;21.90;96521.00;;;;8449832;28;20226;-72
2022/05/27 15:54:23;;;;;;;1.70;1.60;;;;;22.00;96529.00;;;;8453476;27;20233;-72
2022/05/27 15:58:28;;;;;;;2.35;1.75;;;;;22.00;96521.00;;;;8447517;28;20935;-71
2022/05/27 16:02:31;;;;;;;1.92;1.83;;;;;22.10;96522.00;;;;8450904;28;20235;-72
2022/05/27 16:06:35;;;;;;;2.45;2.00;;;;;21.70;96529.00;;;;8449381;28;20222;-72
2022/05/27 16:10:38;;;;;;;2.83;1.92;;;;;21.30;96517.00;;;;8442345;28;20297;-73
2022/05/27 16:14:43;;;;;;;2.58;2.13;;;;;20.90;96522.00;;;;8451187;28;20322;-73
2022/05/27 16:18:47;;;;;;;3.30;2.08;;;;;20.80;96520.00;;;;8450324;28;20223;-73
2022/05/27 16:22:51;;;;;;;3.40;2.20;;;;;20.80;96524.00;;;;8443656;28;20226;-73
2022/05/27 16:26:54;;;;;;;2.97;2.10;;;;;20.80;96518.00;;;;8451808;28;20230;-73
2022/05/27 16:30:59;;;;;;;1.85;1.75;;;;;20.60;96517.00;;;;8447123;28;20226;-73
2022/05/27 16:35:04;;;;;;;2.22;1.90;;;;;20.60;96518.00;;;;8444535;28;20602;-71
2022/05/27 16:39:07;;;;;;;2.25;2.15;;;;;20.40;96515.00;;;;8449248;28;20990;-73
2022/05/27 16:43:14;;;;;;;1.80;1.70;;;;;20.30;96522.00;;;;8440965;27;20241;-72
2022/05/27 16:47:19;;;;;;;1.98;1.88;;;;;20.20;96513.00;;;;8449224;28;20230;-72
2022/05/27 16:51:23;;;;;;;2.85;2.20;;;;;20.20;96531.00;;;;8446561;27;20234;-72
2022/05/27 16:55:26;;;;;;;5.90;2.10;;;;;20.60;96519.00;;;;8405053;27;20219;-72
2022/05/27 16:59:29;;;;;;;1.80;1.70;;;;;20.30;96528.00;;;;8437188;27;20605;-72
2022/05/27 17:03:34;;;;;;;1.60;1.50;;;;;20.00;96532.00;;;;8440721;28;20245;-72
2022/05/27 17:07:38;;;;;;;1.25;1.25;;;;;19.70;96568.00;;;;8442593;28;20314;-72
2022/05/27 17:11:42;;;;;;;2.58;1.08;;;;;19.10;96573.00;;;;8439258;28;20244;-72
2022/05/27 17:15:45;;;;;;;1.73;1.13;;;;;18.60;96584.00;;;;8446818;28;20571;-75
2022/05/27 17:19:50;;;;;;;1.75;1.20;;;;;18.10;96574.00;;;;8442147;27;20862;-72
2022/05/27 17:23:53;;;;;;;2.42;1.70;;;;;17.50;96577.00;;;;8450416;28;20587;-75
2022/05/27 17:27:57;;;;;;;1.50;1.40;;;;;16.80;96580.00;;;;8450670;28;20644;-74
2022/05/27 17:32:00;;;;;;;1.45;1.40;;;;;16.40;96577.00;;;;8443049;28;20253;-78
2022/05/27 17:36:06;;;;;;;1.52;1.50;;;;;15.80;96583.00;;;;8446223;28;20679;-77
2022/05/27 17:40:12;;;;;;;5.43;1.63;;;;;15.50;96579.00;;;;8462099;27;20222;-75
2022/05/27 17:44:16;;;;;;;2.60;2.40;;;;;15.40;96589.00;;;;8428422;27;20232;-76
2022/05/27 17:52:41;;;;;;;2.60;2.50;;;;;14.70;96575.00;;;;8452084;27;20218;-75
2022/05/27 17:56:45;;;;;;;2.78;2.40;;;;;14.50;96560.00;;;;8433351;27;20219;-74
2022/05/27 18:00:48;;;;;;;3.42;2.80;;;;;14.50;96560.00;;;;8433598;28;20233;-72
2022/05/27 18:04:52;;;;;;;2.50;2.30;;;;;14.50;96570.00;;;;8409891;28;20958;-72
2022/05/27 18:08:56;;;;;;;4.03;2.65;;;;;14.40;96564.00;;;;8409577;28;20222;-73
2022/05/27 18:13:01;;;;;;;2.80;2.60;;;;;14.30;96559.00;;;;8408517;28;20743;-73
2022/05/27 18:17:05;;;;;;;4.10;2.50;;;;;14.40;96559.00;;;;8404492;28;20261;-76
2022/05/27 18:21:08;;;;;;;4.25;2.40;;;;;14.40;96562.00;;;;8404033;28;21020;-73
2022/05/27 18:25:14;;;;;;;3.47;2.30;;;;;14.50;96567.00;;;;8407355;28;20254;-75
2022/05/27 18:29:17;;;;;;;2.30;2.20;;;;;14.60;96565.00;;;;8410165;28;20233;-76
2022/05/27 18:33:20;;;;;;;3.10;2.45;;;;;14.70;96555.00;;;;8409649;28;20320;-78
2022/05/27 18:37:24;;;;;;;2.40;2.30;;;;;14.90;96558.00;;;;8402748;28;20256;-78
2022/05/27 18:41:30;;;;;;;2.35;2.20;;;;;15.00;96558.00;;;;8420205;28;20323;-77
2022/05/27 18:45:33;;;;;;;2.60;2.30;;;;;15.10;96553.00;;;;8410240;28;20222;-78
2022/05/27 18:49:37;;;;;;;2.20;2.10;;;;;15.10;96553.00;;;;8410252;28;20827;-78
2022/05/27 18:53:42;;;;;;;4.22;2.40;;;;;15.10;96558.00;;;;8400672;28;20219;-80
2022/05/27 18:57:46;;;;;;;2.28;2.17;;;;;15.00;96547.00;;;;8408907;28;20405;-79
2022/05/27 19:01:50;;;;;;;2.22;2.10;;;;;14.90;96556.00;;;;8410078;28;20761;-76
2022/05/27 19:05:54;;;;;;;2.05;1.95;;;;;14.80;96552.00;;;;8404536;28;20718;-77
2022/05/27 19:09:57;;;;;;;2.42;2.22;;;;;14.70;96557.00;;;;8402628;28;20265;-77
2022/05/27 19:14:01;;;;;;;3.58;2.30;;;;;14.60;96557.00;;;;8404305;28;20227;-77
2022/05/27 19:18:05;;;;;;;3.08;2.15;;;;;14.50;96556.00;;;;8410477;28;20228;-75
2022/05/27 19:22:08;;;;;;;2.05;1.95;;;;;14.40;96565.00;;;;8397447;28;20234;-77
2022/05/27 19:26:12;;;;;;;2.55;2.20;;;;;14.40;96565.00;;;;8407963;28;20524;-77
2022/05/27 19:30:17;;;;;;;2.35;2.25;;;;;14.30;96574.00;;;;8409704;28;20629;-76
2022/05/27 19:34:20;;;;;;;2.85;2.20;;;;;14.30;96575.00;;;;8404813;28;20676;-77
2022/05/27 19:38:24;;;;;;;3.00;2.10;;;;;14.30;96577.00;;;;8411054;28;20662;-74
2022/05/27 19:42:28;;;;;;;2.95;2.03;;;;;14.30;96578.00;;;;8405649;28;20246;-77
2022/05/27 19:46:34;;;;;;;4.07;1.88;;;;;14.20;96582.00;;;;8409952;28;20603;-77
2022/05/27 19:50:37;;;;;;;2.53;2.33;;;;;14.20;96589.00;;;;8402540;28;20275;-77
2022/05/27 19:54:41;;;;;;;2.80;2.60;;;;;14.20;96588.00;;;;8405052;28;20229;-75
2022/05/27 20:07:29;;;;;;;2.70;2.50;;;;;14.00;96584.00;;;;8409450;28;20232;-74
2022/05/27 20:11:34;;;;;;;2.63;2.42;;;;;13.90;96587.00;;;;8418450;28;20224;-75
2022/05/27 20:15:37;;;;;;;2.33;2.20;;;;;13.90;96586.00;;;;8413851;28;20299;-76
2022/05/27 20:19:42;;;;;;;2.55;2.35;;;;;13.80;96587.00;;;;8417251;28;20238;-76
2022/05/27 20:23:47;;;;;;;2.67;2.47;;;;;13.80;96582.00;;;;8407260;28;20237;-76
2022/05/27 20:27:50;;;;;;;2.38;2.15;;;;;13.70;96582.00;;;;8420382;28;20411;-76
2022/05/27 20:31:53;;;;;;;2.47;2.38;;;;;13.70;96571.00;;;;8405203;28;20231;-76
2022/05/27 20:40:18;;;;;;;3.00;2.53;;;;;13.80;96578.00;;;;8422253;28;20255;-74
2022/05/27 20:44:22;;;;;;;2.63;2.45;;;;;13.90;96564.00;;;;8417059;28;20266;-76
2022/05/27 20:48:25;;;;;;;2.72;2.53;;;;;14.00;96569.00;;;;8423373;28;20302;-75
2022/05/27 20:52:29;;;;;;;2.92;2.72;;;;;14.10;96568.00;;;;8403319;28;20700;-75
2022/05/27 20:56:33;;;;;;;2.70;2.50;;;;;14.10;96561.00;;;;8416765;28;20219;-73
2022/05/27 21:00:36;;;;;;;2.65;2.45;;;;;14.20;96564.00;;;;8412286;28;20779;-73
2022/05/27 21:04:41;;;;;;;2.85;2.60;;;;;14.30;96558.00;;;;8410262;28;20226;-74
2022/05/27 21:08:54;;;;;;;2.67;2.47;;;;;14.40;96554.00;;;;8413657;28;20235;-73
2022/05/27 21:12:57;;;;;;;3.60;2.60;;;;;14.60;96555.00;;;;8415105;28;20314;-73
2022/05/27 21:17:00;;;;;;;5.00;2.70;;;;;14.70;96560.00;;;;8411319;28;20218;-73
2022/05/27 21:21:03;;;;;;;4.22;2.78;;;;;14.80;96558.00;;;;8415710;28;20235;-74
2022/05/27 21:25:09;;;;;;;2.70;2.50;;;;;14.90;96557.00;;;;8415947;28;20569;-73
2022/05/27 21:29:13;;;;;;;2.80;2.60;;;;;14.90;96555.00;;;;8412755;28;20235;-74
2022/05/27 21:33:16;;;;;;;2.88;2.67;;;;;14.80;96559.00;;;;8415378;28;20223;-73
2022/05/27 21:37:19;;;;;;;5.57;2.88;;;;;14.70;96556.00;;;;8416605;28;20233;-74